createdAt,value
2023-01-31T00:01:53.037Z,4.10
2023-01-31T00:04:22.312Z,3.80
2023-01-31T00:06:52.185Z,5.05
2023-01-31T00:09:20.310Z,4.80
2023-01-31T00:11:48.381Z,3.90
2023-01-31T00:14:19.626Z,4.18
2023-01-31T00:16:48.167Z,4.32
2023-01-31T00:19:16.199Z,3.50
2023-01-31T00:21:45.906Z,5.32
2023-01-31T00:24:14.458Z,5.60
2023-01-31T00:26:42.688Z,4.85
2023-01-31T00:29:10.867Z,3.80
2023-01-31T00:31:39.906Z,3.72
2023-01-31T00:34:08.651Z,4.03
2023-01-31T00:36:37.911Z,4.93
2023-01-31T00:39:08.610Z,5.47
2023-01-31T00:41:38.936Z,4.40
2023-01-31T00:44:07.788Z,4.60
2023-01-31T00:46:36.802Z,4.63
2023-01-31T00:49:05.660Z,4.38
2023-01-31T00:51:33.699Z,4.20
2023-01-31T00:54:01.717Z,5.00
2023-01-31T00:56:31.039Z,5.10
2023-01-31T00:59:00.298Z,4.82
2023-01-31T01:01:30.035Z,4.60
2023-01-31T01:03:59.333Z,4.20
2023-01-31T01:06:27.818Z,4.20
2023-01-31T01:08:57.454Z,4.00
2023-01-31T01:11:28.931Z,4.88
2023-01-31T01:13:59.150Z,5.07
2023-01-31T01:16:31.817Z,4.18
2023-01-31T01:19:00.132Z,3.70
2023-01-31T01:21:29.885Z,4.03
2023-01-31T01:24:00.372Z,4.17
2023-01-31T01:26:31.919Z,5.05
2023-01-31T01:29:03.542Z,4.20
2023-01-31T01:31:32.715Z,3.45
2023-01-31T01:34:02.204Z,4.35
2023-01-31T01:36:30.620Z,3.85
2023-01-31T01:38:59.264Z,4.47
2023-01-31T01:41:27.786Z,4.30
2023-01-31T01:43:57.769Z,5.03
2023-01-31T01:46:31.755Z,4.82
2023-01-31T01:49:03.845Z,3.80
2023-01-31T01:51:34.966Z,4.60
2023-01-31T01:54:10.351Z,4.90
2023-01-31T01:56:42.024Z,4.50
2023-01-31T01:59:14.089Z,5.57
2023-01-31T02:01:44.607Z,5.28
2023-01-31T02:04:16.814Z,5.13
2023-01-31T02:06:45.863Z,5.53
2023-01-31T02:09:21.399Z,5.43
2023-01-31T02:11:49.723Z,5.87
2023-01-31T02:14:19.267Z,5.82
2023-01-31T02:16:48.637Z,6.80
2023-01-31T02:19:23.462Z,5.82
2023-01-31T02:22:15.489Z,5.30
2023-01-31T02:25:15.116Z,5.93
2023-01-31T02:28:01.383Z,6.70
2023-01-31T02:31:11.438Z,7.30
2023-01-31T02:33:45.567Z,6.97
2023-01-31T02:36:26.132Z,6.45
2023-01-31T02:39:04.131Z,7.50
2023-01-31T02:41:39.827Z,7.05
2023-01-31T02:44:31.957Z,7.20
2023-01-31T02:47:04.649Z,8.13
2023-01-31T02:49:39.567Z,8.40
2023-01-31T02:52:17.397Z,6.60
2023-01-31T02:55:09.617Z,6.18
2023-01-31T02:57:39.507Z,6.75
2023-01-31T03:00:10.772Z,6.07
2023-01-31T03:02:38.861Z,7.50
2023-01-31T03:05:08.598Z,7.65
2023-01-31T03:07:39.271Z,6.80
2023-01-31T03:10:18.664Z,6.47
2023-01-31T03:12:58.765Z,6.60
2023-01-31T03:15:59.979Z,7.03
2023-01-31T03:18:31.018Z,6.90
2023-01-31T03:21:06.766Z,8.27
2023-01-31T03:23:38.392Z,6.93
2023-01-31T03:26:08.301Z,7.80
2023-01-31T03:28:40.177Z,6.68
2023-01-31T03:31:14.907Z,7.07
2023-01-31T03:33:46.809Z,8.00
2023-01-31T03:36:27.894Z,7.65
2023-01-31T03:39:03.219Z,7.68
2023-01-31T03:41:40.255Z,6.63
2023-01-31T03:44:11.861Z,6.70
2023-01-31T03:46:44.447Z,7.78
2023-01-31T03:49:16.573Z,7.15
2023-01-31T03:51:50.001Z,8.35
2023-01-31T03:54:21.426Z,8.45
2023-01-31T03:56:55.692Z,7.50
2023-01-31T03:59:30.346Z,7.00
2023-01-31T04:02:01.936Z,8.60
2023-01-31T04:04:33.815Z,7.03
2023-01-31T04:07:03.341Z,8.45
2023-01-31T04:09:31.427Z,8.50
2023-01-31T04:12:01.600Z,7.40
2023-01-31T04:14:29.888Z,7.47
2023-01-31T04:16:57.998Z,7.03
2023-01-31T04:19:26.021Z,6.95
2023-01-31T04:21:53.984Z,7.70
2023-01-31T04:24:23.334Z,7.43
2023-01-31T04:26:51.372Z,8.38
2023-01-31T04:29:19.458Z,8.57
2023-01-31T04:31:47.772Z,7.28
2023-01-31T04:34:15.872Z,8.02
2023-01-31T04:36:43.877Z,6.93
2023-01-31T04:39:13.611Z,7.50
2023-01-31T04:41:42.926Z,8.13
2023-01-31T04:44:12.026Z,8.52
2023-01-31T04:46:40.191Z,7.80
2023-01-31T04:49:08.853Z,8.00
2023-01-31T04:51:36.832Z,7.38
2023-01-31T04:54:05.145Z,7.97
2023-01-31T04:56:33.274Z,7.70
2023-01-31T04:59:02.808Z,8.10
2023-01-31T05:01:30.891Z,8.18
2023-01-31T05:03:58.948Z,6.97
2023-01-31T05:06:26.914Z,7.45
2023-01-31T05:08:55.225Z,6.82
2023-01-31T05:11:23.158Z,7.18
2023-01-31T05:13:51.130Z,6.90
2023-01-31T05:16:20.557Z,7.40
2023-01-31T05:18:50.890Z,6.95
2023-01-31T05:21:18.936Z,6.85
2023-01-31T05:23:46.944Z,7.53
2023-01-31T05:26:14.944Z,7.40
2023-01-31T05:28:43.001Z,6.60
2023-01-31T05:31:13.203Z,6.60
2023-01-31T05:33:43.064Z,7.25
2023-01-31T05:36:11.085Z,6.53
2023-01-31T05:38:39.042Z,5.87
2023-01-31T05:41:06.997Z,7.43
2023-01-31T05:43:36.390Z,6.60
2023-01-31T05:46:05.309Z,6.32
2023-01-31T05:48:33.593Z,7.07
2023-01-31T05:51:03.305Z,6.90
2023-01-31T05:53:31.313Z,7.43
2023-01-31T05:55:59.279Z,7.25
2023-01-31T05:58:27.280Z,7.70
2023-01-31T06:00:57.426Z,6.65
2023-01-31T06:03:25.451Z,7.47
2023-01-31T06:05:54.082Z,7.43
2023-01-31T06:08:23.462Z,7.45
2023-01-31T06:10:51.396Z,7.68
2023-01-31T06:13:19.419Z,6.13
2023-01-31T06:15:47.380Z,6.23
2023-01-31T06:18:15.310Z,7.37
2023-01-31T06:20:43.335Z,6.50
2023-01-31T06:23:11.333Z,7.13
2023-01-31T06:25:40.645Z,6.90
2023-01-31T06:28:08.709Z,6.68
2023-01-31T06:30:37.293Z,5.90
2023-01-31T06:33:05.297Z,5.75
2023-01-31T06:35:34.097Z,7.00
2023-01-31T06:38:02.078Z,5.97
2023-01-31T06:40:30.817Z,6.95
2023-01-31T06:43:00.235Z,5.60
2023-01-31T06:45:28.350Z,5.85
2023-01-31T06:47:56.334Z,5.70
2023-01-31T06:50:24.283Z,5.72
2023-01-31T06:52:52.279Z,5.57
2023-01-31T06:55:20.572Z,5.63
2023-01-31T06:57:49.474Z,7.05
2023-01-31T07:00:20.172Z,6.28
2023-01-31T07:02:48.287Z,5.32
2023-01-31T07:05:16.397Z,5.60
2023-01-31T07:07:44.351Z,5.20
2023-01-31T07:10:13.407Z,4.65
2023-01-31T07:12:41.825Z,5.30
2023-01-31T07:15:11.273Z,5.10
2023-01-31T07:17:40.602Z,4.93
2023-01-31T07:20:09.974Z,4.40
2023-01-31T07:22:37.996Z,4.90
2023-01-31T07:25:06.877Z,5.00
2023-01-31T07:27:34.816Z,4.57
2023-01-31T07:30:02.852Z,4.25
2023-01-31T07:32:31.593Z,5.05
2023-01-31T07:35:00.871Z,4.40
2023-01-31T07:37:28.908Z,5.03
2023-01-31T07:39:56.877Z,4.22
2023-01-31T07:42:24.981Z,4.80
2023-01-31T07:44:52.943Z,4.18
2023-01-31T07:47:20.945Z,4.50
2023-01-31T07:49:50.531Z,5.28
2023-01-31T07:52:19.931Z,4.90
2023-01-31T07:54:48.155Z,5.00
2023-01-31T07:57:17.649Z,4.47
2023-01-31T07:59:46.260Z,4.70
2023-01-31T08:02:33.575Z,4.50
2023-01-31T08:05:02.069Z,4.43
2023-01-31T08:07:31.856Z,5.95
2023-01-31T08:09:59.790Z,5.10
2023-01-31T08:12:27.769Z,4.20
2023-01-31T08:14:55.852Z,4.27
2023-01-31T08:17:23.963Z,4.60
2023-01-31T08:19:51.917Z,4.90
2023-01-31T08:22:19.931Z,4.22
2023-01-31T08:24:49.243Z,5.00
2023-01-31T08:27:18.397Z,4.53
2023-01-31T08:29:46.406Z,4.22
2023-01-31T08:32:14.396Z,3.85
2023-01-31T08:34:43.524Z,4.00
2023-01-31T08:37:11.703Z,4.07
2023-01-31T08:39:39.913Z,4.68
2023-01-31T08:42:09.256Z,4.75
2023-01-31T08:44:38.364Z,4.47
2023-01-31T08:47:06.650Z,3.87
2023-01-31T08:49:36.992Z,4.55
2023-01-31T08:52:05.364Z,4.20
2023-01-31T08:54:33.284Z,4.00
2023-01-31T08:57:01.255Z,4.13
2023-01-31T08:59:31.377Z,5.10
2023-01-31T09:01:59.385Z,5.20
2023-01-31T09:04:27.361Z,4.50
2023-01-31T09:06:55.595Z,4.00
2023-01-31T09:09:25.901Z,4.57
2023-01-31T09:11:54.015Z,4.88
2023-01-31T09:14:22.029Z,4.00
2023-01-31T09:16:51.303Z,4.35
2023-01-31T09:19:19.438Z,4.93
2023-01-31T09:21:47.368Z,4.60
2023-01-31T09:24:15.385Z,4.50
2023-01-31T09:26:43.412Z,4.50
2023-01-31T09:29:11.373Z,4.63
2023-01-31T09:31:39.433Z,4.88
2023-01-31T09:34:08.845Z,4.70
2023-01-31T09:36:36.882Z,5.28
2023-01-31T09:39:04.941Z,5.25
2023-01-31T09:41:37.310Z,4.00
2023-01-31T09:44:08.071Z,4.55
2023-01-31T09:46:41.041Z,4.28
2023-01-31T09:49:19.113Z,5.13
2023-01-31T09:51:51.974Z,4.40
2023-01-31T09:54:22.535Z,5.80
2023-01-31T09:57:02.018Z,5.05
2023-01-31T09:59:39.503Z,4.60
2023-01-31T10:02:30.697Z,4.80
2023-01-31T10:05:07.728Z,4.80
2023-01-31T10:07:42.470Z,5.13
2023-01-31T10:10:17.415Z,5.07
2023-01-31T10:12:50.110Z,5.85
2023-01-31T10:15:24.543Z,5.07
2023-01-31T10:17:55.831Z,4.53
2023-01-31T10:20:35.512Z,5.03
2023-01-31T10:23:06.528Z,4.93
2023-01-31T10:25:39.462Z,4.50
2023-01-31T10:28:13.013Z,4.95
2023-01-31T10:30:45.638Z,4.88
2023-01-31T10:33:23.129Z,5.00
2023-01-31T10:35:53.894Z,4.45
2023-01-31T10:38:27.787Z,4.75
2023-01-31T10:41:00.129Z,4.50
2023-01-31T10:43:40.470Z,4.70
2023-01-31T10:46:12.881Z,5.25
2023-01-31T10:48:45.139Z,6.05
2023-01-31T10:51:34.166Z,5.85
2023-01-31T10:54:14.792Z,4.68
2023-01-31T10:56:45.180Z,5.15
2023-01-31T10:59:20.071Z,4.80
2023-01-31T11:01:48.005Z,5.07
2023-01-31T11:04:26.591Z,5.10
2023-01-31T11:06:56.310Z,6.13
2023-01-31T11:09:25.687Z,5.97
2023-01-31T11:11:58.692Z,5.00
2023-01-31T11:14:26.715Z,5.50
2023-01-31T11:17:01.075Z,5.43
2023-01-31T11:19:35.537Z,4.93
2023-01-31T11:22:05.564Z,6.37
2023-01-31T11:24:35.413Z,6.23
2023-01-31T11:27:07.022Z,7.55
2023-01-31T11:29:39.238Z,6.30
2023-01-31T11:32:19.905Z,5.45
2023-01-31T11:34:58.426Z,5.30
2023-01-31T11:37:29.380Z,5.70
2023-01-31T11:39:59.670Z,4.70
2023-01-31T11:42:28.325Z,4.90
2023-01-31T11:45:01.264Z,5.75
2023-01-31T11:47:34.887Z,5.28
2023-01-31T11:50:03.558Z,4.93
2023-01-31T11:52:34.654Z,4.90
2023-01-31T11:55:06.628Z,4.55
2023-01-31T11:57:37.371Z,4.50
2023-01-31T12:00:09.648Z,5.10
2023-01-31T12:02:40.231Z,5.05
2023-01-31T12:05:13.379Z,5.90
2023-01-31T12:07:48.024Z,5.38
2023-01-31T12:10:37.109Z,4.32
2023-01-31T12:13:18.982Z,4.78
2023-01-31T12:15:55.990Z,5.00
2023-01-31T12:18:45.395Z,4.63
2023-01-31T12:21:16.181Z,5.50
2023-01-31T12:23:59.487Z,4.93
2023-01-31T12:26:35.745Z,5.63
2023-01-31T12:29:19.458Z,4.32
2023-01-31T12:31:59.715Z,5.38
2023-01-31T12:35:01.694Z,4.40
2023-01-31T12:37:40.357Z,4.72
2023-01-31T12:40:36.319Z,5.22
2023-01-31T12:43:12.691Z,6.35
2023-01-31T12:45:57.534Z,5.75
2023-01-31T12:48:53.035Z,5.03
2023-01-31T12:51:38.491Z,5.20
2023-01-31T12:54:18.680Z,5.80
2023-01-31T12:57:02.549Z,5.28
2023-01-31T12:59:47.824Z,5.10
2023-01-31T13:02:33.752Z,5.78
2023-01-31T13:05:08.901Z,5.80
2023-01-31T13:07:41.475Z,5.47
2023-01-31T13:10:26.439Z,5.75
2023-01-31T13:12:58.060Z,5.70
2023-01-31T13:15:34.314Z,5.55
2023-01-31T13:18:05.699Z,5.60
2023-01-31T13:20:39.080Z,6.20
2023-01-31T13:23:13.905Z,5.80
2023-01-31T13:25:48.130Z,5.53
2023-01-31T13:28:22.388Z,5.53
2023-01-31T13:30:56.186Z,4.63
2023-01-31T13:33:33.855Z,5.43
2023-01-31T13:36:12.926Z,5.47
2023-01-31T13:38:43.975Z,5.20
2023-01-31T13:41:19.193Z,5.00
2023-01-31T13:43:48.511Z,5.80
2023-01-31T13:46:21.493Z,5.80
2023-01-31T13:48:54.189Z,5.70
2023-01-31T13:51:26.293Z,5.00
2023-01-31T13:54:00.520Z,4.30
2023-01-31T13:56:31.584Z,4.45
2023-01-31T13:59:02.658Z,5.30
2023-01-31T14:01:35.336Z,4.72
2023-01-31T14:04:31.177Z,4.80
2023-01-31T14:07:18.798Z,5.60
2023-01-31T14:10:02.724Z,5.03
2023-01-31T14:12:35.692Z,4.50
2023-01-31T14:15:26.766Z,4.18
2023-01-31T14:18:00.202Z,5.35
2023-01-31T14:20:30.391Z,4.63
2023-01-31T14:23:33.352Z,4.68
2023-01-31T14:26:01.363Z,5.13
2023-01-31T14:28:29.565Z,5.75
2023-01-31T14:30:59.039Z,4.70
2023-01-31T14:33:30.339Z,4.23
2023-01-31T14:36:33.488Z,4.65
2023-01-31T14:39:53.262Z,4.85
2023-01-31T14:42:45.718Z,4.40
2023-01-31T14:45:26.160Z,4.20
2023-01-31T14:48:26.151Z,5.30
2023-01-31T14:51:09.196Z,4.70
2023-01-31T14:53:56.170Z,5.57
2023-01-31T14:56:38.528Z,4.82
2023-01-31T14:59:16.369Z,3.77
2023-01-31T15:01:45.074Z,4.43
2023-01-31T15:04:22.207Z,4.43
2023-01-31T15:06:52.842Z,4.00
2023-01-31T15:09:37.353Z,5.03
2023-01-31T15:12:07.869Z,4.90
2023-01-31T15:14:41.415Z,4.72
2023-01-31T15:17:33.272Z,4.28
2023-01-31T15:20:16.173Z,4.13
2023-01-31T15:22:45.367Z,4.80
2023-01-31T15:25:25.037Z,4.15
2023-01-31T15:27:55.311Z,4.70
2023-01-31T15:30:24.454Z,5.28
2023-01-31T15:32:57.629Z,5.50
2023-01-31T15:35:30.162Z,5.97
2023-01-31T15:38:01.945Z,5.13
2023-01-31T15:40:30.868Z,5.63
2023-01-31T15:43:17.100Z,5.20
2023-01-31T15:45:45.283Z,4.97
2023-01-31T15:48:15.387Z,5.20
2023-01-31T15:50:52.207Z,4.57
2023-01-31T15:53:23.763Z,5.57
2023-01-31T15:55:54.979Z,5.10
2023-01-31T15:58:26.446Z,5.10
2023-01-31T16:00:55.982Z,5.40
2023-01-31T16:03:25.892Z,4.95
2023-01-31T16:05:57.810Z,4.82
2023-01-31T16:08:30.159Z,4.80
2023-01-31T16:10:59.086Z,4.70
2023-01-31T16:13:27.857Z,6.32
2023-01-31T16:15:56.225Z,5.57
2023-01-31T16:18:24.960Z,5.60
2023-01-31T16:20:55.513Z,5.10
2023-01-31T16:23:29.862Z,5.13
2023-01-31T16:26:04.220Z,4.93
2023-01-31T16:28:39.039Z,4.83
2023-01-31T16:31:10.209Z,4.93
2023-01-31T16:33:39.066Z,5.30
2023-01-31T16:36:16.447Z,5.57
2023-01-31T16:38:57.407Z,6.60
2023-01-31T16:41:40.918Z,5.17
2023-01-31T16:44:14.699Z,5.40
2023-01-31T16:46:45.997Z,5.13
2023-01-31T16:49:23.456Z,5.35
2023-01-31T16:51:56.539Z,5.80
2023-01-31T16:54:25.843Z,5.78
2023-01-31T16:57:21.865Z,5.45
2023-01-31T16:59:51.510Z,5.70
2023-01-31T17:02:29.073Z,4.75
2023-01-31T17:04:59.010Z,5.40
2023-01-31T17:07:31.299Z,4.85
2023-01-31T17:10:01.984Z,4.70
2023-01-31T17:12:32.395Z,5.30
2023-01-31T17:15:03.358Z,5.40
2023-01-31T17:17:33.978Z,5.80
2023-01-31T17:20:02.374Z,5.33
2023-01-31T17:22:31.801Z,6.00
2023-01-31T17:24:59.833Z,5.57
2023-01-31T17:27:27.858Z,4.45
2023-01-31T17:29:55.863Z,5.40
2023-01-31T17:32:23.835Z,5.47
2023-01-31T17:34:51.861Z,6.30
2023-01-31T17:37:30.180Z,6.70
2023-01-31T17:40:00.946Z,6.32
2023-01-31T17:42:29.044Z,6.70
2023-01-31T17:44:56.988Z,6.20
2023-01-31T17:47:26.951Z,6.18
2023-01-31T17:49:55.448Z,5.90
2023-01-31T17:52:23.408Z,5.90
2023-01-31T17:54:51.367Z,6.15
2023-01-31T17:57:20.781Z,5.80
2023-01-31T17:59:48.757Z,5.55
2023-01-31T18:02:16.759Z,5.68
2023-01-31T18:04:44.775Z,5.57
2023-01-31T18:07:16.763Z,5.20
2023-01-31T18:09:45.600Z,4.15
2023-01-31T18:12:13.538Z,5.70
2023-01-31T18:14:43.080Z,5.40
2023-01-31T18:17:11.089Z,5.68
2023-01-31T18:19:39.169Z,4.95
2023-01-31T18:22:07.141Z,5.30
2023-01-31T18:24:35.175Z,4.40
2023-01-31T18:27:03.181Z,4.82
2023-01-31T18:29:31.288Z,5.78
2023-01-31T18:32:02.648Z,5.05
2023-01-31T18:34:31.791Z,5.55
2023-01-31T18:36:59.842Z,5.60
2023-01-31T18:39:27.898Z,5.30
2023-01-31T18:41:55.923Z,4.95
2023-01-31T18:44:23.981Z,5.20
2023-01-31T18:46:51.956Z,5.05
2023-01-31T18:49:21.342Z,5.90
2023-01-31T18:51:49.854Z,4.70
2023-01-31T18:54:21.451Z,5.90
2023-01-31T18:56:49.533Z,4.35
2023-01-31T18:59:17.589Z,5.43
2023-01-31T19:01:45.577Z,4.95
2023-01-31T19:04:13.732Z,4.70
2023-01-31T19:06:44.344Z,4.28
2023-01-31T19:09:12.823Z,6.30
2023-01-31T19:11:41.733Z,5.25
2023-01-31T19:14:13.584Z,6.13
2023-01-31T19:16:43.138Z,5.00
2023-01-31T19:19:11.538Z,5.35
2023-01-31T19:21:40.312Z,5.35
2023-01-31T19:24:12.704Z,5.17
2023-01-31T19:26:40.914Z,4.88
2023-01-31T19:29:09.977Z,5.90
2023-01-31T19:31:38.174Z,6.13
2023-01-31T19:34:07.520Z,4.93
2023-01-31T19:36:37.647Z,5.13
2023-01-31T19:39:07.843Z,5.55
2023-01-31T19:41:37.293Z,4.70
2023-01-31T19:44:05.717Z,4.60
2023-01-31T19:46:35.688Z,5.82
2023-01-31T19:49:04.097Z,5.75
2023-01-31T19:51:32.499Z,5.85
2023-01-31T19:54:02.783Z,5.22
2023-01-31T19:56:31.808Z,4.70
2023-01-31T19:59:03.304Z,4.53
2023-01-31T20:01:31.386Z,5.60
2023-01-31T20:03:59.664Z,4.55
2023-01-31T20:06:29.714Z,6.45
2023-01-31T20:08:59.437Z,5.72
2023-01-31T20:11:29.486Z,5.30
2023-01-31T20:13:58.342Z,6.22
2023-01-31T20:16:28.081Z,5.10
2023-01-31T20:18:56.652Z,5.38
2023-01-31T20:21:25.052Z,6.20
2023-01-31T20:23:53.025Z,5.80
2023-01-31T20:26:24.133Z,6.60
2023-01-31T20:28:52.618Z,4.65
2023-01-31T20:31:20.773Z,5.20
2023-01-31T20:33:51.881Z,6.30
2023-01-31T20:36:21.602Z,5.30
2023-01-31T20:38:51.244Z,5.50
2023-01-31T20:41:19.322Z,6.63
2023-01-31T20:43:47.293Z,6.00
2023-01-31T20:46:19.198Z,5.38
2023-01-31T20:48:47.218Z,6.07
2023-01-31T20:51:16.562Z,5.60
2023-01-31T20:53:44.512Z,5.10
2023-01-31T20:56:12.484Z,5.32
2023-01-31T20:58:42.363Z,5.93
2023-01-31T21:01:11.866Z,5.82
2023-01-31T21:03:39.936Z,5.13
2023-01-31T21:06:08.688Z,5.63
2023-01-31T21:08:38.162Z,5.30
2023-01-31T21:11:08.344Z,5.50
2023-01-31T21:13:36.983Z,5.20
2023-01-31T21:16:07.163Z,6.38
2023-01-31T21:18:37.323Z,5.78
2023-01-31T21:21:07.370Z,5.78
2023-01-31T21:23:36.195Z,6.00
2023-01-31T21:26:07.117Z,5.82
2023-01-31T21:28:35.753Z,6.03
2023-01-31T21:31:05.769Z,6.40
2023-01-31T21:33:33.963Z,5.30
2023-01-31T21:36:08.791Z,6.38
2023-01-31T21:38:36.760Z,5.68
2023-01-31T21:41:35.344Z,5.13
2023-01-31T21:44:03.759Z,4.53
2023-01-31T21:46:31.781Z,4.95
2023-01-31T21:49:01.316Z,5.30
2023-01-31T21:51:29.262Z,5.70
2023-01-31T21:53:57.380Z,6.23
2023-01-31T21:56:29.731Z,5.65
2023-01-31T21:58:58.226Z,6.15
2023-01-31T22:01:28.562Z,4.70
2023-01-31T22:03:56.965Z,4.50
2023-01-31T22:06:27.165Z,4.78
2023-01-31T22:08:57.318Z,5.25
2023-01-31T22:11:28.546Z,5.32
2023-01-31T22:13:56.497Z,5.03
2023-01-31T22:16:24.784Z,5.18
2023-01-31T22:18:53.520Z,5.07
2023-01-31T22:21:24.105Z,5.00
2023-01-31T22:23:55.176Z,4.70
2023-01-31T22:26:27.192Z,5.20
2023-01-31T22:28:57.315Z,5.65
2023-01-31T22:31:25.866Z,5.30
2023-01-31T22:33:54.056Z,5.60
2023-01-31T22:36:21.976Z,5.78
2023-01-31T22:38:49.923Z,5.22
2023-01-31T22:41:20.137Z,4.72
2023-01-31T22:43:51.929Z,5.93
2023-01-31T22:46:21.949Z,5.82
2023-01-31T22:48:50.411Z,5.80
2023-01-31T22:51:20.170Z,5.23
2023-01-31T22:53:48.786Z,5.38
2023-01-31T22:56:18.879Z,5.63
2023-01-31T22:58:47.537Z,5.47
2023-01-31T23:01:19.855Z,5.65
2023-01-31T23:03:48.892Z,5.00
2023-01-31T23:06:17.969Z,5.75
2023-01-31T23:08:45.973Z,5.43
2023-01-31T23:11:15.941Z,5.00
2023-01-31T23:13:44.884Z,4.60
2023-01-31T23:16:19.970Z,5.40
2023-01-31T23:18:48.173Z,6.00
2023-01-31T23:21:19.133Z,5.43
2023-01-31T23:23:47.442Z,4.90
2023-01-31T23:26:15.658Z,4.47
2023-01-31T23:28:43.644Z,5.10
2023-01-31T23:31:11.686Z,4.97
2023-01-31T23:33:41.096Z,5.40
2023-01-31T23:36:09.642Z,5.43
2023-01-31T23:38:37.629Z,5.45
2023-01-31T23:41:05.951Z,5.03
2023-01-31T23:43:33.903Z,4.90
2023-01-31T23:46:02.010Z,4.95
2023-01-31T23:48:30.438Z,4.75
2023-01-31T23:51:05.385Z,6.75
2023-01-31T23:53:33.322Z,7.43
2023-01-31T23:56:01.256Z,5.80
2023-01-31T23:58:29.233Z,5.23
